sensor_id;sensor_type;location;lat;lon;timestamp;P1;durP1;ratioP1;P2;durP2;ratioP2
34019;SDS011;20895;51.034;3.742;2024-03-06T00:00:28;10.35;;;8.48;;
34019;SDS011;20895;51.034;3.742;2024-03-06T00:02:53;9.95;;;8.55;;
34019;SDS011;20895;51.034;3.742;2024-03-06T00:05:19;12.25;;;9.50;;
34019;SDS011;20895;51.034;3.742;2024-03-06T00:07:44;13.10;;;8.68;;
34019;SDS011;20895;51.034;3.742;2024-03-06T00:10:09;12.00;;;8.50;;
34019;SDS011;20895;51.034;3.742;2024-03-06T00:12:35;10.00;;;8.93;;
34019;SDS011;20895;51.034;3.742;2024-03-06T00:15:00;8.93;;;8.02;;
34019;SDS011;20895;51.034;3.742;2024-03-06T00:17:27;8.88;;;8.00;;
34019;SDS011;20895;51.034;3.742;2024-03-06T00:19:52;10.85;;;8.27;;
34019;SDS011;20895;51.034;3.742;2024-03-06T00:22:17;10.15;;;8.07;;
34019;SDS011;20895;51.034;3.742;2024-03-06T00:24:43;9.15;;;7.80;;
34019;SDS011;20895;51.034;3.742;2024-03-06T00:27:08;14.35;;;8.18;;
34019;SDS011;20895;51.034;3.742;2024-03-06T00:29:34;9.68;;;8.23;;
34019;SDS011;20895;51.034;3.742;2024-03-06T00:32:03;9.77;;;8.70;;
34019;SDS011;20895;51.034;3.742;2024-03-06T00:34:28;9.05;;;8.13;;
34019;SDS011;20895;51.034;3.742;2024-03-06T00:36:54;10.80;;;8.68;;
34019;SDS011;20895;51.034;3.742;2024-03-06T00:39:19;10.80;;;8.80;;
34019;SDS011;20895;51.034;3.742;2024-03-06T00:41:44;10.43;;;8.85;;
34019;SDS011;20895;51.034;3.742;2024-03-06T00:44:10;11.38;;;9.18;;
34019;SDS011;20895;51.034;3.742;2024-03-06T00:46:35;9.43;;;8.50;;
34019;SDS011;20895;51.034;3.742;2024-03-06T00:49:00;10.02;;;9.00;;
34019;SDS011;20895;51.034;3.742;2024-03-06T00:51:26;12.52;;;8.98;;
34019;SDS011;20895;51.034;3.742;2024-03-06T00:53:51;11.55;;;8.90;;
34019;SDS011;20895;51.034;3.742;2024-03-06T00:56:16;12.60;;;8.98;;
34019;SDS011;20895;51.034;3.742;2024-03-06T00:58:41;12.00;;;8.50;;
34019;SDS011;20895;51.034;3.742;2024-03-06T01:01:07;10.40;;;8.35;;
34019;SDS011;20895;51.034;3.742;2024-03-06T01:03:32;10.52;;;9.50;;
34019;SDS011;20895;51.034;3.742;2024-03-06T01:05:57;9.68;;;8.68;;
34019;SDS011;20895;51.034;3.742;2024-03-06T01:08:22;9.82;;;8.82;;
34019;SDS011;20895;51.034;3.742;2024-03-06T01:10:50;8.98;;;8.07;;
34019;SDS011;20895;51.034;3.742;2024-03-06T01:13:15;10.00;;;8.32;;
34019;SDS011;20895;51.034;3.742;2024-03-06T01:15:40;10.77;;;8.57;;
34019;SDS011;20895;51.034;3.742;2024-03-06T01:18:06;10.57;;;9.02;;
34019;SDS011;20895;51.034;3.742;2024-03-06T01:20:31;10.88;;;9.68;;
34019;SDS011;20895;51.034;3.742;2024-03-06T01:22:56;11.82;;;9.90;;
34019;SDS011;20895;51.034;3.742;2024-03-06T01:25:21;11.10;;;9.85;;
34019;SDS011;20895;51.034;3.742;2024-03-06T01:27:50;11.43;;;10.23;;
34019;SDS011;20895;51.034;3.742;2024-03-06T01:30:15;13.82;;;9.63;;
34019;SDS011;20895;51.034;3.742;2024-03-06T01:32:40;10.75;;;9.68;;
34019;SDS011;20895;51.034;3.742;2024-03-06T01:35:06;10.60;;;9.50;;
34019;SDS011;20895;51.034;3.742;2024-03-06T01:37:31;10.82;;;9.73;;
34019;SDS011;20895;51.034;3.742;2024-03-06T01:39:57;11.60;;;9.90;;
34019;SDS011;20895;51.034;3.742;2024-03-06T01:42:22;13.40;;;9.38;;
34019;SDS011;20895;51.034;3.742;2024-03-06T01:44:47;12.52;;;10.43;;
34019;SDS011;20895;51.034;3.742;2024-03-06T01:47:12;14.13;;;10.98;;
34019;SDS011;20895;51.034;3.742;2024-03-06T01:49:38;11.32;;;10.13;;
34019;SDS011;20895;51.034;3.742;2024-03-06T01:52:04;11.52;;;10.35;;
34019;SDS011;20895;51.034;3.742;2024-03-06T01:54:29;13.23;;;11.10;;
34019;SDS011;20895;51.034;3.742;2024-03-06T01:56:56;11.55;;;9.85;;
34019;SDS011;20895;51.034;3.742;2024-03-06T01:59:22;12.43;;;11.13;;
34019;SDS011;20895;51.034;3.742;2024-03-06T02:01:52;13.00;;;11.25;;
34019;SDS011;20895;51.034;3.742;2024-03-06T02:04:18;13.25;;;11.80;;
34019;SDS011;20895;51.034;3.742;2024-03-06T02:06:43;11.25;;;10.15;;
34019;SDS011;20895;51.034;3.742;2024-03-06T02:09:09;12.93;;;11.23;;
34019;SDS011;20895;51.034;3.742;2024-03-06T02:11:34;13.13;;;10.73;;
34019;SDS011;20895;51.034;3.742;2024-03-06T02:13:59;12.88;;;11.57;;
34019;SDS011;20895;51.034;3.742;2024-03-06T02:16:25;13.55;;;11.27;;
34019;SDS011;20895;51.034;3.742;2024-03-06T02:18:52;12.07;;;10.88;;
34019;SDS011;20895;51.034;3.742;2024-03-06T02:21:19;12.90;;;11.60;;
34019;SDS011;20895;51.034;3.742;2024-03-06T02:23:44;11.10;;;10.10;;
34019;SDS011;20895;51.034;3.742;2024-03-06T02:26:10;13.48;;;10.60;;
34019;SDS011;20895;51.034;3.742;2024-03-06T02:28:35;13.05;;;11.73;;
34019;SDS011;20895;51.034;3.742;2024-03-06T02:31:01;12.40;;;10.57;;
34019;SDS011;20895;51.034;3.742;2024-03-06T02:33:27;12.10;;;10.90;;
34019;SDS011;20895;51.034;3.742;2024-03-06T02:35:52;12.20;;;10.93;;
34019;SDS011;20895;51.034;3.742;2024-03-06T02:38:17;15.85;;;11.75;;
34019;SDS011;20895;51.034;3.742;2024-03-06T02:40:43;13.95;;;11.68;;
34019;SDS011;20895;51.034;3.742;2024-03-06T02:43:09;13.13;;;11.80;;
34019;SDS011;20895;51.034;3.742;2024-03-06T02:45:34;13.65;;;12.13;;
34019;SDS011;20895;51.034;3.742;2024-03-06T02:47:59;14.43;;;12.30;;
34019;SDS011;20895;51.034;3.742;2024-03-06T02:50:25;13.70;;;12.30;;
34019;SDS011;20895;51.034;3.742;2024-03-06T02:52:50;13.68;;;11.68;;
34019;SDS011;20895;51.034;3.742;2024-03-06T02:55:16;14.70;;;11.85;;
34019;SDS011;20895;51.034;3.742;2024-03-06T02:57:42;12.40;;;11.20;;
34019;SDS011;20895;51.034;3.742;2024-03-06T03:00:07;14.38;;;12.50;;
34019;SDS011;20895;51.034;3.742;2024-03-06T03:02:38;14.32;;;11.85;;
34019;SDS011;20895;51.034;3.742;2024-03-06T03:05:03;15.13;;;12.90;;
34019;SDS011;20895;51.034;3.742;2024-03-06T03:07:29;12.98;;;11.68;;
34019;SDS011;20895;51.034;3.742;2024-03-06T03:09:55;14.70;;;13.13;;
34019;SDS011;20895;51.034;3.742;2024-03-06T03:12:20;14.60;;;12.38;;
34019;SDS011;20895;51.034;3.742;2024-03-06T03:14:46;15.02;;;12.52;;
34019;SDS011;20895;51.034;3.742;2024-03-06T03:17:11;14.07;;;12.20;;
34019;SDS011;20895;51.034;3.742;2024-03-06T03:19:37;13.77;;;12.32;;
34019;SDS011;20895;51.034;3.742;2024-03-06T03:22:05;14.05;;;12.55;;
34019;SDS011;20895;51.034;3.742;2024-03-06T03:24:30;15.77;;;12.55;;
34019;SDS011;20895;51.034;3.742;2024-03-06T03:26:55;15.10;;;12.45;;
34019;SDS011;20895;51.034;3.742;2024-03-06T03:29:20;13.52;;;12.13;;
34019;SDS011;20895;51.034;3.742;2024-03-06T03:31:46;15.77;;;13.43;;
34019;SDS011;20895;51.034;3.742;2024-03-06T03:34:11;15.15;;;12.10;;
34019;SDS011;20895;51.034;3.742;2024-03-06T03:36:42;14.70;;;13.18;;
34019;SDS011;20895;51.034;3.742;2024-03-06T03:39:10;15.82;;;13.18;;
34019;SDS011;20895;51.034;3.742;2024-03-06T03:41:44;15.55;;;13.77;;
34019;SDS011;20895;51.034;3.742;2024-03-06T03:44:11;15.10;;;13.60;;
34019;SDS011;20895;51.034;3.742;2024-03-06T03:46:36;15.50;;;13.88;;
34019;SDS011;20895;51.034;3.742;2024-03-06T03:49:02;15.65;;;14.05;;
34019;SDS011;20895;51.034;3.742;2024-03-06T03:51:28;15.00;;;13.55;;
34019;SDS011;20895;51.034;3.742;2024-03-06T03:53:53;15.98;;;13.73;;
34019;SDS011;20895;51.034;3.742;2024-03-06T03:56:18;14.60;;;12.50;;
34019;SDS011;20895;51.034;3.742;2024-03-06T03:58:44;15.48;;;13.75;;
34019;SDS011;20895;51.034;3.742;2024-03-06T04:01:10;14.68;;;12.98;;
34019;SDS011;20895;51.034;3.742;2024-03-06T04:03:36;14.18;;;12.75;;
34019;SDS011;20895;51.034;3.742;2024-03-06T04:06:01;15.13;;;13.27;;
34019;SDS011;20895;51.034;3.742;2024-03-06T04:08:26;14.82;;;13.27;;
34019;SDS011;20895;51.034;3.742;2024-03-06T04:10:52;15.35;;;13.85;;
34019;SDS011;20895;51.034;3.742;2024-03-06T04:13:17;14.80;;;13.30;;
34019;SDS011;20895;51.034;3.742;2024-03-06T04:15:44;13.98;;;12.57;;
34019;SDS011;20895;51.034;3.742;2024-03-06T04:18:09;16.58;;;14.07;;
34019;SDS011;20895;51.034;3.742;2024-03-06T04:20:35;15.38;;;13.45;;
34019;SDS011;20895;51.034;3.742;2024-03-06T04:23:01;14.77;;;13.02;;
34019;SDS011;20895;51.034;3.742;2024-03-06T04:25:27;15.25;;;13.65;;
34019;SDS011;20895;51.034;3.742;2024-03-06T04:27:52;14.30;;;12.73;;
34019;SDS011;20895;51.034;3.742;2024-03-06T04:30:18;14.25;;;12.85;;
34019;SDS011;20895;51.034;3.742;2024-03-06T04:32:43;17.25;;;13.73;;
34019;SDS011;20895;51.034;3.742;2024-03-06T04:35:09;15.57;;;13.93;;
34019;SDS011;20895;51.034;3.742;2024-03-06T04:37:35;15.52;;;13.98;;
34019;SDS011;20895;51.034;3.742;2024-03-06T04:40:00;14.90;;;13.40;;
34019;SDS011;20895;51.034;3.742;2024-03-06T04:42:25;17.63;;;13.20;;
34019;SDS011;20895;51.034;3.742;2024-03-06T04:44:50;21.33;;;14.27;;
34019;SDS011;20895;51.034;3.742;2024-03-06T04:47:16;17.15;;;13.65;;
34019;SDS011;20895;51.034;3.742;2024-03-06T04:49:41;15.02;;;13.43;;
34019;SDS011;20895;51.034;3.742;2024-03-06T04:52:07;15.52;;;14.02;;
34019;SDS011;20895;51.034;3.742;2024-03-06T04:54:34;15.73;;;14.02;;
34019;SDS011;20895;51.034;3.742;2024-03-06T04:56:59;17.25;;;15.50;;
34019;SDS011;20895;51.034;3.742;2024-03-06T04:59:25;17.05;;;14.27;;
34019;SDS011;20895;51.034;3.742;2024-03-06T05:01:51;18.70;;;14.70;;
34019;SDS011;20895;51.034;3.742;2024-03-06T05:04:16;14.88;;;13.27;;
34019;SDS011;20895;51.034;3.742;2024-03-06T05:06:41;16.23;;;14.52;;
34019;SDS011;20895;51.034;3.742;2024-03-06T05:09:07;14.88;;;13.27;;
34019;SDS011;20895;51.034;3.742;2024-03-06T05:11:32;21.77;;;13.73;;
34019;SDS011;20895;51.034;3.742;2024-03-06T05:13:59;15.63;;;13.60;;
34019;SDS011;20895;51.034;3.742;2024-03-06T05:16:24;15.43;;;13.90;;
34019;SDS011;20895;51.034;3.742;2024-03-06T05:18:49;17.38;;;14.93;;
34019;SDS011;20895;51.034;3.742;2024-03-06T05:21:14;16.33;;;13.52;;
34019;SDS011;20895;51.034;3.742;2024-03-06T05:23:40;16.08;;;13.88;;
34019;SDS011;20895;51.034;3.742;2024-03-06T05:26:05;17.92;;;14.60;;
34019;SDS011;20895;51.034;3.742;2024-03-06T05:28:30;15.88;;;14.18;;
34019;SDS011;20895;51.034;3.742;2024-03-06T05:30:56;16.73;;;14.65;;
34019;SDS011;20895;51.034;3.742;2024-03-06T05:33:21;22.92;;;14.52;;
34019;SDS011;20895;51.034;3.742;2024-03-06T05:35:47;16.55;;;14.85;;
34019;SDS011;20895;51.034;3.742;2024-03-06T05:38:12;20.75;;;15.98;;
34019;SDS011;20895;51.034;3.742;2024-03-06T05:40:37;17.90;;;15.50;;
34019;SDS011;20895;51.034;3.742;2024-03-06T05:43:05;17.55;;;15.35;;
34019;SDS011;20895;51.034;3.742;2024-03-06T05:45:30;18.10;;;14.70;;
34019;SDS011;20895;51.034;3.742;2024-03-06T05:47:55;17.00;;;15.20;;
34019;SDS011;20895;51.034;3.742;2024-03-06T05:50:21;19.40;;;17.35;;
34019;SDS011;20895;51.034;3.742;2024-03-06T05:52:46;18.00;;;16.20;;
34019;SDS011;20895;51.034;3.742;2024-03-06T05:55:11;17.85;;;15.95;;
34019;SDS011;20895;51.034;3.742;2024-03-06T05:57:37;18.83;;;16.10;;
34019;SDS011;20895;51.034;3.742;2024-03-06T06:00:02;15.93;;;14.35;;
34019;SDS011;20895;51.034;3.742;2024-03-06T06:02:29;17.13;;;15.32;;
34019;SDS011;20895;51.034;3.742;2024-03-06T06:04:55;19.52;;;17.52;;
34019;SDS011;20895;51.034;3.742;2024-03-06T06:07:20;17.50;;;15.57;;
34019;SDS011;20895;51.034;3.742;2024-03-06T06:09:45;20.15;;;15.98;;
34019;SDS011;20895;51.034;3.742;2024-03-06T06:12:11;16.40;;;14.30;;
34019;SDS011;20895;51.034;3.742;2024-03-06T06:14:36;19.08;;;15.82;;
34019;SDS011;20895;51.034;3.742;2024-03-06T06:17:01;18.50;;;15.32;;
34019;SDS011;20895;51.034;3.742;2024-03-06T06:19:28;20.73;;;18.52;;
34019;SDS011;20895;51.034;3.742;2024-03-06T06:21:53;17.80;;;15.52;;
34019;SDS011;20895;51.034;3.742;2024-03-06T06:24:19;17.52;;;15.65;;
34019;SDS011;20895;51.034;3.742;2024-03-06T06:26:44;18.25;;;16.30;;
34019;SDS011;20895;51.034;3.742;2024-03-06T06:29:10;17.58;;;15.73;;
34019;SDS011;20895;51.034;3.742;2024-03-06T06:31:35;21.45;;;17.02;;
34019;SDS011;20895;51.034;3.742;2024-03-06T06:34:00;17.60;;;15.68;;
34019;SDS011;20895;51.034;3.742;2024-03-06T06:36:25;18.83;;;16.92;;
34019;SDS011;20895;51.034;3.742;2024-03-06T06:38:51;18.48;;;16.42;;
34019;SDS011;20895;51.034;3.742;2024-03-06T06:41:17;24.05;;;17.65;;
34019;SDS011;20895;51.034;3.742;2024-03-06T06:43:42;22.13;;;16.48;;
34019;SDS011;20895;51.034;3.742;2024-03-06T06:46:08;18.40;;;16.50;;
34019;SDS011;20895;51.034;3.742;2024-03-06T06:48:33;20.08;;;17.52;;
34019;SDS011;20895;51.034;3.742;2024-03-06T06:50:59;19.30;;;17.25;;
34019;SDS011;20895;51.034;3.742;2024-03-06T06:53:25;18.13;;;16.15;;
34019;SDS011;20895;51.034;3.742;2024-03-06T06:55:50;19.60;;;16.67;;
34019;SDS011;20895;51.034;3.742;2024-03-06T06:58:16;20.13;;;17.77;;
34019;SDS011;20895;51.034;3.742;2024-03-06T07:00:41;27.33;;;17.40;;
34019;SDS011;20895;51.034;3.742;2024-03-06T07:03:07;19.80;;;17.60;;
34019;SDS011;20895;51.034;3.742;2024-03-06T07:05:32;18.63;;;16.75;;
34019;SDS011;20895;51.034;3.742;2024-03-06T07:07:58;19.83;;;17.30;;
34019;SDS011;20895;51.034;3.742;2024-03-06T07:10:23;19.10;;;16.77;;
34019;SDS011;20895;51.034;3.742;2024-03-06T07:12:48;21.13;;;17.05;;
34019;SDS011;20895;51.034;3.742;2024-03-06T07:15:14;19.75;;;17.73;;
34019;SDS011;20895;51.034;3.742;2024-03-06T07:17:39;19.08;;;16.85;;
34019;SDS011;20895;51.034;3.742;2024-03-06T07:20:04;20.30;;;18.30;;
34019;SDS011;20895;51.034;3.742;2024-03-06T07:22:33;19.92;;;17.02;;
34019;SDS011;20895;51.034;3.742;2024-03-06T07:24:59;22.98;;;17.23;;
34019;SDS011;20895;51.034;3.742;2024-03-06T07:27:24;20.13;;;17.75;;
34019;SDS011;20895;51.034;3.742;2024-03-06T07:29:50;18.40;;;16.48;;
34019;SDS011;20895;51.034;3.742;2024-03-06T07:32:15;18.15;;;16.20;;
34019;SDS011;20895;51.034;3.742;2024-03-06T07:34:40;18.15;;;16.40;;
34019;SDS011;20895;51.034;3.742;2024-03-06T07:37:05;17.90;;;16.00;;
34019;SDS011;20895;51.034;3.742;2024-03-06T07:39:31;19.42;;;17.40;;
34019;SDS011;20895;51.034;3.742;2024-03-06T07:41:59;20.75;;;15.85;;
34019;SDS011;20895;51.034;3.742;2024-03-06T07:44:25;19.42;;;17.35;;
34019;SDS011;20895;51.034;3.742;2024-03-06T07:46:50;21.02;;;16.20;;
34019;SDS011;20895;51.034;3.742;2024-03-06T07:49:15;18.45;;;16.58;;
34019;SDS011;20895;51.034;3.742;2024-03-06T07:51:41;19.10;;;17.05;;
34019;SDS011;20895;51.034;3.742;2024-03-06T07:54:06;22.15;;;18.35;;
34019;SDS011;20895;51.034;3.742;2024-03-06T07:56:32;26.90;;;19.48;;
34019;SDS011;20895;51.034;3.742;2024-03-06T07:58:57;25.88;;;20.05;;
34019;SDS011;20895;51.034;3.742;2024-03-06T08:01:22;28.55;;;20.25;;
34019;SDS011;20895;51.034;3.742;2024-03-06T08:03:48;26.90;;;21.20;;
34019;SDS011;20895;51.034;3.742;2024-03-06T08:06:13;32.20;;;23.88;;
34019;SDS011;20895;51.034;3.742;2024-03-06T08:08:42;27.40;;;21.45;;
34019;SDS011;20895;51.034;3.742;2024-03-06T08:11:09;28.30;;;23.17;;
34019;SDS011;20895;51.034;3.742;2024-03-06T08:13:36;34.47;;;25.17;;
34019;SDS011;20895;51.034;3.742;2024-03-06T08:16:01;32.60;;;25.58;;
34019;SDS011;20895;51.034;3.742;2024-03-06T08:18:26;29.90;;;24.05;;
34019;SDS011;20895;51.034;3.742;2024-03-06T08:20:52;35.85;;;25.55;;
34019;SDS011;20895;51.034;3.742;2024-03-06T08:23:18;33.90;;;24.70;;
34019;SDS011;20895;51.034;3.742;2024-03-06T08:25:43;37.10;;;26.35;;
34019;SDS011;20895;51.034;3.742;2024-03-06T08:28:08;39.47;;;26.50;;
34019;SDS011;20895;51.034;3.742;2024-03-06T08:30:34;37.33;;;24.77;;
34019;SDS011;20895;51.034;3.742;2024-03-06T08:33:00;39.08;;;28.20;;
34019;SDS011;20895;51.034;3.742;2024-03-06T08:35:25;39.85;;;29.00;;
34019;SDS011;20895;51.034;3.742;2024-03-06T08:37:50;40.63;;;27.48;;
34019;SDS011;20895;51.034;3.742;2024-03-06T08:40:16;39.03;;;28.45;;
34019;SDS011;20895;51.034;3.742;2024-03-06T08:42:48;36.50;;;28.52;;
34019;SDS011;20895;51.034;3.742;2024-03-06T08:45:14;39.40;;;27.58;;
34019;SDS011;20895;51.034;3.742;2024-03-06T08:47:42;42.25;;;29.08;;
34019;SDS011;20895;51.034;3.742;2024-03-06T08:50:08;34.70;;;27.00;;
34019;SDS011;20895;51.034;3.742;2024-03-06T08:52:34;45.97;;;29.55;;
34019;SDS011;20895;51.034;3.742;2024-03-06T08:54:59;39.45;;;30.05;;
34019;SDS011;20895;51.034;3.742;2024-03-06T08:57:25;39.60;;;30.63;;
34019;SDS011;20895;51.034;3.742;2024-03-06T08:59:53;39.55;;;27.92;;
34019;SDS011;20895;51.034;3.742;2024-03-06T09:02:19;35.63;;;26.75;;
34019;SDS011;20895;51.034;3.742;2024-03-06T09:04:44;34.22;;;25.40;;
34019;SDS011;20895;51.034;3.742;2024-03-06T09:07:10;36.95;;;28.27;;
34019;SDS011;20895;51.034;3.742;2024-03-06T09:09:36;40.08;;;26.95;;
34019;SDS011;20895;51.034;3.742;2024-03-06T09:12:07;37.28;;;25.80;;
34019;SDS011;20895;51.034;3.742;2024-03-06T09:14:35;37.42;;;26.05;;
34019;SDS011;20895;51.034;3.742;2024-03-06T09:17:01;32.22;;;23.23;;
34019;SDS011;20895;51.034;3.742;2024-03-06T09:19:26;30.08;;;23.70;;
34019;SDS011;20895;51.034;3.742;2024-03-06T09:21:51;29.83;;;21.85;;
34019;SDS011;20895;51.034;3.742;2024-03-06T09:24:17;29.30;;;21.77;;
34019;SDS011;20895;51.034;3.742;2024-03-06T09:26:43;29.77;;;22.10;;
34019;SDS011;20895;51.034;3.742;2024-03-06T09:29:08;29.40;;;21.98;;
34019;SDS011;20895;51.034;3.742;2024-03-06T09:31:34;30.30;;;22.55;;
34019;SDS011;20895;51.034;3.742;2024-03-06T09:33:59;25.45;;;20.20;;
34019;SDS011;20895;51.034;3.742;2024-03-06T09:36:24;29.17;;;21.55;;
34019;SDS011;20895;51.034;3.742;2024-03-06T09:38:50;27.48;;;20.75;;
34019;SDS011;20895;51.034;3.742;2024-03-06T09:41:15;29.95;;;22.25;;
34019;SDS011;20895;51.034;3.742;2024-03-06T09:43:41;29.58;;;21.73;;
34019;SDS011;20895;51.034;3.742;2024-03-06T09:46:08;32.78;;;22.52;;
34019;SDS011;20895;51.034;3.742;2024-03-06T09:48:33;25.92;;;20.33;;
34019;SDS011;20895;51.034;3.742;2024-03-06T09:51:02;28.00;;;19.88;;
34019;SDS011;20895;51.034;3.742;2024-03-06T09:53:28;27.77;;;20.25;;
34019;SDS011;20895;51.034;3.742;2024-03-06T09:55:54;24.73;;;20.17;;
34019;SDS011;20895;51.034;3.742;2024-03-06T09:58:20;26.98;;;20.27;;
34019;SDS011;20895;51.034;3.742;2024-03-06T10:00:46;24.48;;;17.70;;
34019;SDS011;20895;51.034;3.742;2024-03-06T10:03:12;24.13;;;19.90;;
34019;SDS011;20895;51.034;3.742;2024-03-06T10:05:38;23.70;;;19.70;;
34019;SDS011;20895;51.034;3.742;2024-03-06T10:08:05;26.10;;;18.58;;
34019;SDS011;20895;51.034;3.742;2024-03-06T10:10:30;23.75;;;19.27;;
34019;SDS011;20895;51.034;3.742;2024-03-06T10:12:55;23.42;;;18.63;;
34019;SDS011;20895;51.034;3.742;2024-03-06T10:15:25;25.80;;;19.00;;
34019;SDS011;20895;51.034;3.742;2024-03-06T10:17:51;23.52;;;17.70;;
34019;SDS011;20895;51.034;3.742;2024-03-06T10:20:20;20.98;;;17.23;;
34019;SDS011;20895;51.034;3.742;2024-03-06T10:22:55;20.15;;;16.95;;
34019;SDS011;20895;51.034;3.742;2024-03-06T10:25:21;23.00;;;17.83;;
34019;SDS011;20895;51.034;3.742;2024-03-06T10:28:08;28.73;;;18.10;;
34019;SDS011;20895;51.034;3.742;2024-03-06T10:30:35;18.90;;;16.17;;
34019;SDS011;20895;51.034;3.742;2024-03-06T10:33:04;18.67;;;15.05;;
34019;SDS011;20895;51.034;3.742;2024-03-06T10:35:33;19.50;;;15.90;;
34019;SDS011;20895;51.034;3.742;2024-03-06T10:38:01;19.77;;;15.88;;
34019;SDS011;20895;51.034;3.742;2024-03-06T10:40:33;19.60;;;14.65;;
34019;SDS011;20895;51.034;3.742;2024-03-06T10:42:59;20.85;;;14.52;;
34019;SDS011;20895;51.034;3.742;2024-03-06T10:45:27;18.23;;;13.88;;
34019;SDS011;20895;51.034;3.742;2024-03-06T10:47:56;24.00;;;15.32;;
34019;SDS011;20895;51.034;3.742;2024-03-06T10:50:21;17.83;;;13.88;;
34019;SDS011;20895;51.034;3.742;2024-03-06T10:52:46;18.23;;;14.07;;
34019;SDS011;20895;51.034;3.742;2024-03-06T10:55:13;19.42;;;15.13;;
34019;SDS011;20895;51.034;3.742;2024-03-06T10:57:38;19.98;;;15.30;;
34019;SDS011;20895;51.034;3.742;2024-03-06T11:00:05;19.65;;;15.07;;
34019;SDS011;20895;51.034;3.742;2024-03-06T11:02:31;18.35;;;13.57;;
34019;SDS011;20895;51.034;3.742;2024-03-06T11:04:57;18.00;;;14.43;;
34019;SDS011;20895;51.034;3.742;2024-03-06T11:07:22;15.43;;;13.63;;
34019;SDS011;20895;51.034;3.742;2024-03-06T11:09:47;21.80;;;13.73;;
34019;SDS011;20895;51.034;3.742;2024-03-06T11:15:00;15.63;;;12.00;;
34019;SDS011;20895;51.034;3.742;2024-03-06T11:17:26;17.25;;;11.90;;
34019;SDS011;20895;51.034;3.742;2024-03-06T11:23:01;14.48;;;11.07;;
34019;SDS011;20895;51.034;3.742;2024-03-06T11:28:11;12.00;;;9.00;;
34019;SDS011;20895;51.034;3.742;2024-03-06T11:30:44;9.13;;;7.18;;
34019;SDS011;20895;51.034;3.742;2024-03-06T11:33:12;9.82;;;7.03;;
34019;SDS011;20895;51.034;3.742;2024-03-06T11:35:38;11.82;;;7.90;;
34019;SDS011;20895;51.034;3.742;2024-03-06T11:38:05;9.75;;;7.88;;
34019;SDS011;20895;51.034;3.742;2024-03-06T11:40:31;12.40;;;9.15;;
34019;SDS011;20895;51.034;3.742;2024-03-06T11:42:56;11.25;;;7.47;;
34019;SDS011;20895;51.034;3.742;2024-03-06T11:45:22;14.57;;;9.27;;
34019;SDS011;20895;51.034;3.742;2024-03-06T11:47:59;10.65;;;8.13;;
34019;SDS011;20895;51.034;3.742;2024-03-06T11:50:25;11.63;;;8.05;;
34019;SDS011;20895;51.034;3.742;2024-03-06T11:52:51;11.32;;;8.02;;
34019;SDS011;20895;51.034;3.742;2024-03-06T11:55:16;10.38;;;7.55;;
34019;SDS011;20895;51.034;3.742;2024-03-06T11:57:41;11.43;;;7.82;;
34019;SDS011;20895;51.034;3.742;2024-03-06T12:00:07;10.55;;;6.90;;
34019;SDS011;20895;51.034;3.742;2024-03-06T12:02:33;12.82;;;6.65;;
34019;SDS011;20895;51.034;3.742;2024-03-06T12:05:01;9.93;;;6.22;;
34019;SDS011;20895;51.034;3.742;2024-03-06T12:07:27;7.70;;;5.57;;
34019;SDS011;20895;51.034;3.742;2024-03-06T12:09:52;9.15;;;5.00;;
34019;SDS011;20895;51.034;3.742;2024-03-06T12:12:18;6.15;;;3.90;;
34019;SDS011;20895;51.034;3.742;2024-03-06T12:14:43;6.13;;;4.03;;
34019;SDS011;20895;51.034;3.742;2024-03-06T12:17:20;6.80;;;4.13;;
34019;SDS011;20895;51.034;3.742;2024-03-06T12:19:45;7.90;;;5.40;;
34019;SDS011;20895;51.034;3.742;2024-03-06T12:22:11;8.13;;;5.70;;
34019;SDS011;20895;51.034;3.742;2024-03-06T12:24:38;9.40;;;7.45;;
34019;SDS011;20895;51.034;3.742;2024-03-06T12:27:04;13.10;;;7.70;;
34019;SDS011;20895;51.034;3.742;2024-03-06T12:29:30;9.93;;;6.93;;
34019;SDS011;20895;51.034;3.742;2024-03-06T12:31:57;10.85;;;7.18;;
34019;SDS011;20895;51.034;3.742;2024-03-06T12:34:22;9.18;;;6.90;;
34019;SDS011;20895;51.034;3.742;2024-03-06T12:36:47;9.65;;;7.72;;
34019;SDS011;20895;51.034;3.742;2024-03-06T12:39:14;10.05;;;5.68;;
34019;SDS011;20895;51.034;3.742;2024-03-06T12:41:40;7.88;;;5.45;;
34019;SDS011;20895;51.034;3.742;2024-03-06T12:44:05;6.88;;;5.05;;
34019;SDS011;20895;51.034;3.742;2024-03-06T12:46:31;8.50;;;6.38;;
34019;SDS011;20895;51.034;3.742;2024-03-06T12:48:57;6.90;;;5.25;;
34019;SDS011;20895;51.034;3.742;2024-03-06T12:51:22;7.65;;;5.13;;
34019;SDS011;20895;51.034;3.742;2024-03-06T12:53:47;10.15;;;5.60;;
34019;SDS011;20895;51.034;3.742;2024-03-06T12:56:13;7.80;;;4.65;;
34019;SDS011;20895;51.034;3.742;2024-03-06T12:58:38;5.60;;;3.95;;
34019;SDS011;20895;51.034;3.742;2024-03-06T13:01:04;6.15;;;4.65;;
34019;SDS011;20895;51.034;3.742;2024-03-06T13:03:30;5.25;;;4.13;;
34019;SDS011;20895;51.034;3.742;2024-03-06T13:05:56;5.05;;;3.67;;
34019;SDS011;20895;51.034;3.742;2024-03-06T13:08:21;9.68;;;3.95;;
34019;SDS011;20895;51.034;3.742;2024-03-06T13:10:46;5.57;;;3.30;;
34019;SDS011;20895;51.034;3.742;2024-03-06T13:13:12;6.07;;;3.50;;
34019;SDS011;20895;51.034;3.742;2024-03-06T13:15:37;5.32;;;3.70;;
34019;SDS011;20895;51.034;3.742;2024-03-06T13:18:03;8.20;;;4.95;;
34019;SDS011;20895;51.034;3.742;2024-03-06T13:20:34;8.02;;;4.05;;
34019;SDS011;20895;51.034;3.742;2024-03-06T13:22:59;8.38;;;3.88;;
34019;SDS011;20895;51.034;3.742;2024-03-06T13:25:25;6.32;;;4.15;;
34019;SDS011;20895;51.034;3.742;2024-03-06T13:27:51;7.18;;;5.05;;
34019;SDS011;20895;51.034;3.742;2024-03-06T13:30:19;6.10;;;4.32;;
34019;SDS011;20895;51.034;3.742;2024-03-06T13:32:45;9.73;;;5.43;;
34019;SDS011;20895;51.034;3.742;2024-03-06T13:35:11;5.80;;;4.07;;
34019;SDS011;20895;51.034;3.742;2024-03-06T13:37:38;14.15;;;5.97;;
34019;SDS011;20895;51.034;3.742;2024-03-06T13:40:04;9.60;;;5.47;;
34019;SDS011;20895;51.034;3.742;2024-03-06T13:42:32;6.45;;;4.65;;
34019;SDS011;20895;51.034;3.742;2024-03-06T13:44:57;6.63;;;4.63;;
34019;SDS011;20895;51.034;3.742;2024-03-06T13:47:22;9.13;;;4.70;;
34019;SDS011;20895;51.034;3.742;2024-03-06T13:49:48;9.60;;;4.85;;
34019;SDS011;20895;51.034;3.742;2024-03-06T13:52:13;7.70;;;4.28;;
34019;SDS011;20895;51.034;3.742;2024-03-06T13:54:40;6.53;;;4.20;;
34019;SDS011;20895;51.034;3.742;2024-03-06T13:57:06;12.80;;;5.15;;
34019;SDS011;20895;51.034;3.742;2024-03-06T13:59:32;5.32;;;4.30;;
34019;SDS011;20895;51.034;3.742;2024-03-06T14:01:57;9.02;;;4.97;;
34019;SDS011;20895;51.034;3.742;2024-03-06T14:04:24;7.28;;;4.50;;
34019;SDS011;20895;51.034;3.742;2024-03-06T14:06:49;10.70;;;4.18;;
34019;SDS011;20895;51.034;3.742;2024-03-06T14:09:14;5.57;;;3.72;;
34019;SDS011;20895;51.034;3.742;2024-03-06T14:11:40;6.15;;;3.67;;
34019;SDS011;20895;51.034;3.742;2024-03-06T14:14:05;9.57;;;4.22;;
34019;SDS011;20895;51.034;3.742;2024-03-06T14:16:31;7.72;;;4.53;;
34019;SDS011;20895;51.034;3.742;2024-03-06T14:18:56;6.85;;;3.60;;
34019;SDS011;20895;51.034;3.742;2024-03-06T14:21:21;13.85;;;4.72;;
34019;SDS011;20895;51.034;3.742;2024-03-06T14:23:49;8.52;;;4.10;;
34019;SDS011;20895;51.034;3.742;2024-03-06T14:26:14;6.00;;;3.75;;
34019;SDS011;20895;51.034;3.742;2024-03-06T14:28:39;8.55;;;4.10;;